Ek-star — LAMT5 — position and weather

sailwx.info

Track history (hours):
 
Tides and Currents Weather Stations Pressure Air Temp Water Temp Dewpoint Dewpoint Depression Visibility Wind Speed Wind Dir Waves Ship Positions

Ek-star

Last reported at 2015-May-26 09:12 UTC. Time now 2015-May-26 11:53 UTC.
Position N 60°05' E 027°29'.

Length 135 m; draft 6 m.

Type: Tanker. MMSI: 257433000.

Date/timePositionNaut miles runAvg speedWind from/ knotsBaromVisibWave heightAir tempDewpointWater temp
2015-May-26 09:12N 60°05' E 027°29'1013.3
2015-May-26 08:25N 60°00' E 027°11'1112.5
2015-May-26 07:33N 59°59' E 026°50'1313.0
2015-May-26 06:33N 59°57' E 026°24'51 2.7
2015-May-25 12:06N 59°32' E 024°56'5 2.9
2015-May-25 10:23N 59°36' E 024°48'0 0.0
2015-May-25 08:06N 59°36' E 024°48'0 0.0
2015-May-25 07:12N 59°36' E 024°48'0 0.0
2015-May-25 06:27N 59°36' E 024°48'0 0.0
2015-May-25 05:27N 59°36' E 024°48'0 0.0
2015-May-25 03:33N 59°36' E 024°48'0 0.0
2015-May-25 02:33N 59°36' E 024°48'0 0.0
2015-May-25 01:30N 59°36' E 024°48'0 0.0
2015-May-25 00:33N 59°36' E 024°48'0 0.0
2015-May-24 23:24N 59°36' E 024°48'0 0.0
2015-May-24 22:30N 59°36' E 024°48'0 0.0
2015-May-24 21:30N 59°36' E 024°48'0 0.0
2015-May-24 20:32N 59°36' E 024°48'0 0.0
2015-May-24 19:29N 59°36' E 024°48'0 0.0
2015-May-24 17:32N 59°36' E 024°48'0 0.0
2015-May-24 16:32N 59°35' E 024°48'0 0.0
2015-May-24 15:32N 59°35' E 024°48'0 0.0
2015-May-24 13:33N 59°35' E 024°48'0 0.0
2015-May-24 09:27N 59°36' E 024°48'2 0.5
2015-May-24 06:17N 59°37' E 024°49'4311.3
2015-May-24 02:28N 59°57' E 026°05'1312.5
2015-May-24 01:28N 60°01' E 026°29'1112.3
2015-May-24 00:32N 59°60' E 026°52'6 5.5
2015-May-23 23:30N 59°58' E 027°03'1212.5
2015-May-23 22:32N 59°59' E 026°39'1410.5
2015-May-23 21:14N 59°47' E 026°30'1112.7
2015-May-23 20:20N 59°41' E 026°50'4 0.1
2015-May-22 19:33N 59°43' E 026°43'5213.0
2015-May-22 15:32N 59°46' E 024°60'1413.2
2015-May-22 14:28N 59°44' E 024°32'1213.3
2015-May-22 13:33N 59°41' E 024°09'1313.3
2015-May-22 12:32N 59°37' E 023°43'1313.3
2015-May-22 11:33N 59°33' E 023°18'34113.1
2015-May-21 09:33N 55°40' E 015°32'1513.3
2015-May-21 08:27N 55°33' E 015°09'1213.2
2015-May-21 07:33N 55°28' E 014°51'1312.9
2015-May-21 06:33N 55°19' E 014°33'1313.0
2015-May-21 05:33N 55°10' E 014°17'1312.8
2015-May-21 04:33N 55°10' E 013°55'1413.1
2015-May-21 03:29N 55°12' E 013°31'1213.4
2015-May-21 02:33N 55°14' E 013°09'1413.6
2015-May-21 01:33N 55°16' E 012°46'1010.0
2015-May-21 00:33N 55°26' E 012°40'1110.6
2015-May-20 23:33N 55°35' E 012°50'9 8.6
2015-May-20 22:33N 55°43' E 012°52'1212.4
2015-May-20 21:33N 55°54' E 012°39'1110.7
2015-May-20 20:33N 56°04' E 012°37'1111.0
2015-May-20 19:33N 56°11' E 012°21'1313.2
2015-May-20 18:34N 56°19' E 012°02'1313.3
2015-May-20 17:33N 56°32' E 011°57'1313.2
2015-May-20 16:33N 56°45' E 011°51'1413.6
2015-May-20 15:32N 56°58' E 011°44'1313.0
2015-May-20 14:33N 57°10' E 011°36'1313.0
2015-May-20 13:34N 57°22' E 011°28'1212.0
2015-May-20 12:33N 57°32' E 011°16'1312.6
2015-May-20 11:33N 57°40' E 010°58'10 9.9
2015-May-20 10:33N 57°34' E 010°43'4 3.2
2015-May-20 09:21N 57°31' E 010°42'0 0.0
2015-May-20 08:27N 57°31' E 010°42'0 0.0
2015-May-20 07:33N 57°31' E 010°42'0 0.0
2015-May-20 06:33N 57°31' E 010°42'0 0.0
2015-May-20 05:27N 57°31' E 010°42'0 0.0
2015-May-20 04:30N 57°31' E 010°42'0 0.0
2015-May-19 23:06N 57°31' E 010°42'0 0.0
2015-May-19 22:03N 57°31' E 010°42'0 0.0
2015-May-19 21:30N 57°31' E 010°42'0 0.0
2015-May-19 20:03N 57°31' E 010°42'0 0.0
2015-May-19 19:33N 57°31' E 010°42'1 0.9
2015-May-19 18:33N 57°31' E 010°41'0 0.3
2015-May-19 17:26N 57°31' E 010°40'0 0.1
2015-May-19 16:32N 57°31' E 010°40'0 0.0
2015-May-19 15:23N 57°31' E 010°40'0 0.0
2015-May-19 14:14N 57°31' E 010°40'0 0.0
2015-May-19 08:32N 57°31' E 010°40'0 0.0
2015-May-19 06:26N 57°31' E 010°40'0 0.0
2015-May-19 05:26N 57°31' E 010°40'0 0.1
2015-May-19 04:11N 57°31' E 010°40'0 0.0
2015-May-19 03:14N 57°31' E 010°40'0 0.0
2015-May-18 20:14N 57°31' E 010°40'0 0.0
2015-May-18 18:23N 57°31' E 010°40'0 0.0
2015-May-18 17:32N 57°31' E 010°40'0 0.0
2015-May-18 16:32N 57°31' E 010°40'0 0.0
2015-May-18 12:33N 57°31' E 010°40'0 0.0
2015-May-18 05:17N 57°31' E 010°40'0 0.0
2015-May-17 23:05N 57°31' E 010°40'0 0.0
2015-May-17 22:23N 57°31' E 010°40'0 0.0
2015-May-17 21:11N 57°31' E 010°40'0 0.0
2015-May-17 20:11N 57°31' E 010°40'0 0.0
2015-May-17 19:05N 57°31' E 010°40'0 0.0
2015-May-17 16:11N 57°31' E 010°40'3 5.1
2015-May-17 15:33N 57°34' E 010°42'10 9.9
2015-May-17 14:33N 57°44' E 010°47'1010.3
2015-May-17 13:32N 57°39' E 011°04'1211.7
2015-May-17 12:33N 57°31' E 011°20'1111.0
2015-May-17 11:33N 57°21' E 011°30'1110.9
2015-May-17 10:33N 57°11' E 011°37'1111.1
2015-May-17 09:32N 57°00' E 011°44'1110.9
2015-May-17 08:33N 56°51' E 011°52'1010.0
2015-May-17 07:33N 56°41' E 011°49'12311.1
2015-May-16 20:29N 54°41' E 010°56'1111.6
2015-May-16 19:33N 54°36' E 011°12'1211.5
2015-May-16 18:33N 54°31' E 011°30'1211.9
2015-May-16 17:33N 54°26' E 011°49'1211.8
2015-May-16 16:33N 54°26' E 012°09'7311.7
2015-May-16 10:22N 55°03' E 013°58'1112.2
2015-May-16 09:29N 55°10' E 014°12'  
Track history (hours):
 
Tides and Currents Weather Stations Pressure Air Temp Water Temp Dewpoint Dewpoint Depression Visibility Wind Speed Wind Dir Waves Ship Positions

Ek-star

Last reported at 2015-May-26 09:12 UTC. Time now 2015-May-26 11:53 UTC.
Position N 60°05' E 027°29'.

Length 135 m; draft 6 m.

Type: Tanker. MMSI: 257433000.

Date/timePositionNaut miles runAvg speedWind from/ knotsBaromVisibWave heightAir tempDewpointWater temp
2015-May-26 09:12N 60°05' E 027°29'1013.3
2015-May-26 08:25N 60°00' E 027°11'1112.5
2015-May-26 07:33N 59°59' E 026°50'1313.0
2015-May-26 06:33N 59°57' E 026°24'51 2.7
2015-May-25 12:06N 59°32' E 024°56'5 2.9
2015-May-25 10:23N 59°36' E 024°48'0 0.0
2015-May-25 08:06N 59°36' E 024°48'0 0.0
2015-May-25 07:12N 59°36' E 024°48'0 0.0
2015-May-25 06:27N 59°36' E 024°48'0 0.0
2015-May-25 05:27N 59°36' E 024°48'0 0.0
2015-May-25 03:33N 59°36' E 024°48'0 0.0
2015-May-25 02:33N 59°36' E 024°48'0 0.0
2015-May-25 01:30N 59°36' E 024°48'0 0.0
2015-May-25 00:33N 59°36' E 024°48'0 0.0
2015-May-24 23:24N 59°36' E 024°48'0 0.0
2015-May-24 22:30N 59°36' E 024°48'0 0.0
2015-May-24 21:30N 59°36' E 024°48'0 0.0
2015-May-24 20:32N 59°36' E 024°48'0 0.0
2015-May-24 19:29N 59°36' E 024°48'0 0.0
2015-May-24 17:32N 59°36' E 024°48'0 0.0
2015-May-24 16:32N 59°35' E 024°48'0 0.0
2015-May-24 15:32N 59°35' E 024°48'0 0.0
2015-May-24 13:33N 59°35' E 024°48'0 0.0
2015-May-24 09:27N 59°36' E 024°48'2 0.5
2015-May-24 06:17N 59°37' E 024°49'4311.3
2015-May-24 02:28N 59°57' E 026°05'1312.5
2015-May-24 01:28N 60°01' E 026°29'1112.3
2015-May-24 00:32N 59°60' E 026°52'6 5.5
2015-May-23 23:30N 59°58' E 027°03'1212.5
2015-May-23 22:32N 59°59' E 026°39'1410.5
2015-May-23 21:14N 59°47' E 026°30'1112.7
2015-May-23 20:20N 59°41' E 026°50'4 0.1
2015-May-22 19:33N 59°43' E 026°43'5213.0
2015-May-22 15:32N 59°46' E 024°60'1413.2
2015-May-22 14:28N 59°44' E 024°32'1213.3
2015-May-22 13:33N 59°41' E 024°09'1313.3
2015-May-22 12:32N 59°37' E 023°43'1313.3
2015-May-22 11:33N 59°33' E 023°18'34113.1
2015-May-21 09:33N 55°40' E 015°32'1513.3
2015-May-21 08:27N 55°33' E 015°09'1213.2
2015-May-21 07:33N 55°28' E 014°51'1312.9
2015-May-21 06:33N 55°19' E 014°33'1313.0
2015-May-21 05:33N 55°10' E 014°17'1312.8
2015-May-21 04:33N 55°10' E 013°55'1413.1
2015-May-21 03:29N 55°12' E 013°31'1213.4
2015-May-21 02:33N 55°14' E 013°09'1413.6
2015-May-21 01:33N 55°16' E 012°46'1010.0
2015-May-21 00:33N 55°26' E 012°40'1110.6
2015-May-20 23:33N 55°35' E 012°50'9 8.6
2015-May-20 22:33N 55°43' E 012°52'1212.4
2015-May-20 21:33N 55°54' E 012°39'1110.7
2015-May-20 20:33N 56°04' E 012°37'1111.0
2015-May-20 19:33N 56°11' E 012°21'1313.2
2015-May-20 18:34N 56°19' E 012°02'1313.3
2015-May-20 17:33N 56°32' E 011°57'1313.2
2015-May-20 16:33N 56°45' E 011°51'1413.6
2015-May-20 15:32N 56°58' E 011°44'1313.0
2015-May-20 14:33N 57°10' E 011°36'1313.0
2015-May-20 13:34N 57°22' E 011°28'1212.0
2015-May-20 12:33N 57°32' E 011°16'1312.6
2015-May-20 11:33N 57°40' E 010°58'10 9.9
2015-May-20 10:33N 57°34' E 010°43'4 3.2
2015-May-20 09:21N 57°31' E 010°42'0 0.0
2015-May-20 08:27N 57°31' E 010°42'0 0.0
2015-May-20 07:33N 57°31' E 010°42'0 0.0
2015-May-20 06:33N 57°31' E 010°42'0 0.0
2015-May-20 05:27N 57°31' E 010°42'0 0.0
2015-May-20 04:30N 57°31' E 010°42'0 0.0
2015-May-19 23:06N 57°31' E 010°42'0 0.0
2015-May-19 22:03N 57°31' E 010°42'0 0.0
2015-May-19 21:30N 57°31' E 010°42'0 0.0
2015-May-19 20:03N 57°31' E 010°42'0 0.0
2015-May-19 19:33N 57°31' E 010°42'1 0.9
2015-May-19 18:33N 57°31' E 010°41'0 0.3
2015-May-19 17:26N 57°31' E 010°40'0 0.1
2015-May-19 16:32N 57°31' E 010°40'0 0.0
2015-May-19 15:23N 57°31' E 010°40'0 0.0
2015-May-19 14:14N 57°31' E 010°40'0 0.0
2015-May-19 08:32N 57°31' E 010°40'0 0.0
2015-May-19 06:26N 57°31' E 010°40'0 0.0
2015-May-19 05:26N 57°31' E 010°40'0 0.1
2015-May-19 04:11N 57°31' E 010°40'0 0.0
2015-May-19 03:14N 57°31' E 010°40'0 0.0
2015-May-18 20:14N 57°31' E 010°40'0 0.0
2015-May-18 18:23N 57°31' E 010°40'0 0.0
2015-May-18 17:32N 57°31' E 010°40'0 0.0
2015-May-18 16:32N 57°31' E 010°40'0 0.0
2015-May-18 12:33N 57°31' E 010°40'0 0.0
2015-May-18 05:17N 57°31' E 010°40'0 0.0
2015-May-17 23:05N 57°31' E 010°40'0 0.0
2015-May-17 22:23N 57°31' E 010°40'0 0.0
2015-May-17 21:11N 57°31' E 010°40'0 0.0
2015-May-17 20:11N 57°31' E 010°40'0 0.0
2015-May-17 19:05N 57°31' E 010°40'0 0.0
2015-May-17 16:11N 57°31' E 010°40'3 5.1
2015-May-17 15:33N 57°34' E 010°42'10 9.9
2015-May-17 14:33N 57°44' E 010°47'1010.3
2015-May-17 13:32N 57°39' E 011°04'1211.7
2015-May-17 12:33N 57°31' E 011°20'1111.0
2015-May-17 11:33N 57°21' E 011°30'1110.9
2015-May-17 10:33N 57°11' E 011°37'1111.1
2015-May-17 09:32N 57°00' E 011°44'1110.9
2015-May-17 08:33N 56°51' E 011°52'1010.0
2015-May-17 07:33N 56°41' E 011°49'12311.1
2015-May-16 20:29N 54°41' E 010°56'1111.6
2015-May-16 19:33N 54°36' E 011°12'1211.5
2015-May-16 18:33N 54°31' E 011°30'1211.9
2015-May-16 17:33N 54°26' E 011°49'1211.8
2015-May-16 16:33N 54°26' E 012°09'7311.7
2015-May-16 10:22N 55°03' E 013°58'1112.2
2015-May-16 09:29N 55°10' E 014°12'  

Dump ship's entire track history